createdAt,value
2018-09-06T00:00:37.825Z,30.60
2018-09-06T00:01:38.791Z,29.70
2018-09-06T00:02:37.832Z,28.90
2018-09-06T00:03:38.161Z,30.00
2018-09-06T00:04:37.583Z,30.00
2018-09-06T00:05:37.519Z,30.00
2018-09-06T00:06:37.631Z,30.10
2018-09-06T00:07:37.402Z,29.30
2018-09-06T00:08:37.697Z,30.40
2018-09-06T00:09:37.280Z,30.80
2018-09-06T00:10:37.218Z,30.50
2018-09-06T00:11:37.311Z,29.40
2018-09-06T00:12:37.099Z,29.60
2018-09-06T00:13:37.048Z,31.00
2018-09-06T00:14:36.976Z,28.60
2018-09-06T00:15:36.916Z,29.10
2018-09-06T00:16:36.858Z,29.30
2018-09-06T00:17:36.794Z,29.70
2018-09-06T00:18:36.733Z,29.80
2018-09-06T00:19:36.671Z,30.60
2018-09-06T00:20:36.612Z,30.30
2018-09-06T00:21:36.551Z,31.30
2018-09-06T00:22:36.487Z,31.30
2018-09-06T00:23:36.428Z,31.30
2018-09-06T00:24:36.367Z,31.10
2018-09-06T00:25:36.308Z,30.70
2018-09-06T00:26:36.247Z,31.60
2018-09-06T00:27:36.186Z,29.30
2018-09-06T00:28:36.126Z,31.30
2018-09-06T00:29:36.069Z,31.10
2018-09-06T00:30:36.003Z,30.60
2018-09-06T00:31:35.945Z,30.50
2018-09-06T00:32:35.883Z,29.70
2018-09-06T00:33:35.825Z,30.40
2018-09-06T00:34:35.761Z,31.30
2018-09-06T00:35:35.702Z,30.50
2018-09-06T00:36:35.640Z,31.50
2018-09-06T00:37:35.583Z,30.10
2018-09-06T00:38:35.522Z,30.70
2018-09-06T00:39:35.458Z,31.10
2018-09-06T00:40:35.401Z,30.80
2018-09-06T00:41:35.337Z,31.30
2018-09-06T00:42:35.276Z,30.40
2018-09-06T00:43:35.215Z,31.00
2018-09-06T00:44:35.154Z,31.70
2018-09-06T00:45:35.096Z,32.00
2018-09-06T00:46:35.032Z,31.90
2018-09-06T00:47:34.972Z,30.10
2018-09-06T00:48:34.911Z,30.00
2018-09-06T00:49:34.850Z,30.40
2018-09-06T00:50:34.789Z,29.80
2018-09-06T00:51:34.732Z,31.00
2018-09-06T00:52:34.667Z,30.30
2018-09-06T00:53:34.609Z,30.20
2018-09-06T00:54:34.545Z,30.80
2018-09-06T00:55:34.484Z,31.10
2018-09-06T00:56:34.423Z,30.80
2018-09-06T00:57:34.383Z,30.90
2018-09-06T00:58:34.301Z,31.00
2018-09-06T00:59:34.245Z,31.20
2018-09-06T01:00:34.181Z,30.00
2018-09-06T01:01:34.117Z,29.60
2018-09-06T01:02:34.058Z,30.20
2018-09-06T01:03:33.998Z,29.70
2018-09-06T01:04:33.935Z,30.70
2018-09-06T01:05:33.913Z,30.20
2018-09-06T01:06:33.814Z,29.30
2018-09-06T01:07:33.755Z,28.90
2018-09-06T01:08:33.694Z,30.90
2018-09-06T01:09:33.632Z,30.50
2018-09-06T01:10:33.570Z,30.40
2018-09-06T01:11:33.510Z,29.30
2018-09-06T01:12:33.452Z,30.10
2018-09-06T01:13:33.388Z,29.90
2018-09-06T01:14:33.327Z,29.20
2018-09-06T01:15:33.268Z,29.70
2018-09-06T01:16:33.204Z,29.00
2018-09-06T01:17:33.144Z,29.10
2018-09-06T01:18:33.082Z,29.80
2018-09-06T01:19:33.025Z,30.30
2018-09-06T01:20:32.963Z,30.30
2018-09-06T01:21:32.903Z,29.30
2018-09-06T01:22:32.838Z,29.90
2018-09-06T01:23:32.782Z,29.30
2018-09-06T01:24:32.718Z,29.20
2018-09-06T01:25:32.657Z,27.70
2018-09-06T01:26:32.595Z,28.60
2018-09-06T01:27:32.538Z,28.30
2018-09-06T01:28:32.475Z,27.90
2018-09-06T01:29:32.414Z,28.10
2018-09-06T01:30:32.351Z,29.00
2018-09-06T01:31:32.287Z,29.50
2018-09-06T01:32:32.231Z,29.30
2018-09-06T01:33:32.170Z,29.20
2018-09-06T01:34:32.108Z,30.10
2018-09-06T01:35:32.047Z,29.20
2018-09-06T01:36:31.983Z,28.90
2018-09-06T01:37:31.926Z,30.00
2018-09-06T01:38:31.905Z,29.70
2018-09-06T01:39:31.802Z,30.40
2018-09-06T01:40:31.742Z,30.20
2018-09-06T01:41:31.680Z,31.20
2018-09-06T01:42:31.619Z,29.70
2018-09-06T01:43:31.564Z,29.80
2018-09-06T01:44:31.498Z,29.90
2018-09-06T01:45:31.437Z,30.00
2018-09-06T01:46:31.376Z,29.50
2018-09-06T01:47:31.315Z,29.90
2018-09-06T01:48:31.253Z,30.10
2018-09-06T01:49:31.194Z,30.20
2018-09-06T01:50:31.135Z,30.10
2018-09-06T01:51:31.071Z,29.60
2018-09-06T01:52:31.009Z,30.10
2018-09-06T01:53:30.950Z,29.00
2018-09-06T01:54:30.887Z,29.50
2018-09-06T01:55:30.826Z,30.00
2018-09-06T01:56:30.768Z,29.80
2018-09-06T01:57:30.703Z,29.90
2018-09-06T01:58:30.642Z,29.00
2018-09-06T01:59:30.581Z,29.80
2018-09-06T02:00:30.519Z,28.60
2018-09-06T02:01:30.458Z,30.60
2018-09-06T02:02:30.397Z,29.60
2018-09-06T02:03:30.344Z,30.60
2018-09-06T02:04:30.274Z,30.30
2018-09-06T02:05:30.216Z,31.90
2018-09-06T02:06:30.156Z,32.50
2018-09-06T02:07:30.090Z,30.20
2018-09-06T02:08:30.031Z,29.90
2018-09-06T02:09:30.012Z,30.40
2018-09-06T02:10:29.908Z,29.90
2018-09-06T02:11:29.848Z,31.30
2018-09-06T02:12:29.786Z,30.90
2018-09-06T02:13:29.726Z,30.20
2018-09-06T02:14:29.663Z,31.80
2018-09-06T02:15:29.604Z,30.80
2018-09-06T02:16:29.544Z,31.50
2018-09-06T02:17:29.487Z,32.00
2018-09-06T02:18:29.419Z,31.10
2018-09-06T02:19:29.359Z,31.70
2018-09-06T02:20:29.300Z,31.10
2018-09-06T02:21:29.237Z,32.30
2018-09-06T02:22:29.176Z,32.30
2018-09-06T02:23:29.114Z,31.90
2018-09-06T02:24:29.102Z,31.60
2018-09-06T02:25:28.992Z,31.30
2018-09-06T02:26:28.930Z,31.40
2018-09-06T02:27:28.870Z,31.40
2018-09-06T02:28:28.808Z,32.80
2018-09-06T02:29:28.746Z,33.50
2018-09-06T02:30:28.686Z,32.90
2018-09-06T02:31:28.629Z,33.90
2018-09-06T02:32:28.564Z,33.70
2018-09-06T02:33:28.503Z,33.50
2018-09-06T02:34:28.443Z,34.60
2018-09-06T02:35:28.379Z,34.20
2018-09-06T02:36:28.318Z,34.60
2018-09-06T02:37:28.258Z,35.90
2018-09-06T02:38:28.196Z,35.00
2018-09-06T02:39:28.135Z,35.20
2018-09-06T02:40:28.075Z,35.00
2018-09-06T02:41:28.012Z,35.00
2018-09-06T02:42:27.951Z,35.50
2018-09-06T02:43:27.888Z,35.50
2018-09-06T02:44:27.829Z,36.50
2018-09-06T02:45:27.768Z,35.50
2018-09-06T02:46:27.707Z,35.10
2018-09-06T02:47:27.648Z,34.70
2018-09-06T02:48:27.587Z,34.80
2018-09-06T02:49:27.523Z,34.10
2018-09-06T02:50:27.461Z,34.20
2018-09-06T02:51:27.408Z,33.80
2018-09-06T02:52:27.337Z,32.90
2018-09-06T02:53:27.278Z,34.00
2018-09-06T02:54:27.219Z,33.70
2018-09-06T02:55:27.155Z,32.30
2018-09-06T02:56:27.101Z,33.00
2018-09-06T02:57:27.036Z,34.00
2018-09-06T02:58:26.973Z,33.80
2018-09-06T02:59:26.910Z,33.50
2018-09-06T03:00:26.862Z,34.20
2018-09-06T03:01:26.788Z,33.30
2018-09-06T03:02:26.726Z,34.20
2018-09-06T03:03:26.662Z,34.00
2018-09-06T03:04:26.608Z,33.90
2018-09-06T03:05:26.542Z,33.10
2018-09-06T03:06:26.481Z,32.50
2018-09-06T03:07:26.419Z,33.10
2018-09-06T03:08:26.357Z,32.70
2018-09-06T03:09:26.297Z,33.50
2018-09-06T03:10:26.235Z,33.00
2018-09-06T03:11:26.172Z,32.50
2018-09-06T03:12:26.111Z,32.70
2018-09-06T03:13:26.052Z,32.80
2018-09-06T03:14:25.990Z,31.60
2018-09-06T03:15:25.997Z,32.90
2018-09-06T03:16:25.864Z,32.90
2018-09-06T03:17:25.810Z,32.60
2018-09-06T03:18:25.746Z,32.30
2018-09-06T03:19:25.687Z,33.30
2018-09-06T03:20:25.624Z,32.30
2018-09-06T03:21:25.562Z,32.20
2018-09-06T03:22:25.500Z,31.80
2018-09-06T03:23:25.439Z,31.60
2018-09-06T03:24:25.381Z,32.00
2018-09-06T03:25:25.320Z,33.10
2018-09-06T03:26:25.253Z,33.00
2018-09-06T03:27:25.195Z,33.00
2018-09-06T03:28:25.132Z,32.70
2018-09-06T03:29:25.069Z,33.10
2018-09-06T03:30:25.005Z,32.60
2018-09-06T03:31:24.949Z,32.10
2018-09-06T03:32:24.886Z,32.10
2018-09-06T03:33:24.825Z,32.70
2018-09-06T03:34:24.765Z,32.20
2018-09-06T03:35:24.701Z,34.00
2018-09-06T03:36:24.652Z,32.90
2018-09-06T03:37:24.577Z,32.90
2018-09-06T03:38:24.520Z,32.00
2018-09-06T03:39:24.457Z,31.60
2018-09-06T03:40:24.396Z,32.90
2018-09-06T03:41:24.336Z,33.00
2018-09-06T03:42:24.280Z,33.50
2018-09-06T03:43:24.230Z,33.20
2018-09-06T03:44:24.150Z,33.00
2018-09-06T03:45:24.088Z,33.40
2018-09-06T03:46:24.029Z,32.60
2018-09-06T03:47:23.964Z,32.70
2018-09-06T03:48:23.903Z,33.00
2018-09-06T03:49:23.844Z,32.40
2018-09-06T03:50:23.778Z,31.70
2018-09-06T03:51:23.720Z,32.00
2018-09-06T03:52:23.658Z,31.50
2018-09-06T03:53:23.598Z,32.60
2018-09-06T03:54:23.535Z,33.50
2018-09-06T03:55:23.497Z,31.80
2018-09-06T03:56:23.413Z,32.90
2018-09-06T03:57:23.352Z,32.90
2018-09-06T03:58:23.291Z,31.50
2018-09-06T03:59:23.230Z,32.50
2018-09-06T04:00:23.182Z,33.30
2018-09-06T04:01:23.106Z,32.60
2018-09-06T04:02:23.046Z,31.50
2018-09-06T04:03:22.986Z,32.40
2018-09-06T04:04:22.921Z,31.40
2018-09-06T04:05:22.862Z,31.70
2018-09-06T04:06:22.801Z,32.30
2018-09-06T04:07:22.738Z,31.50
2018-09-06T04:08:22.680Z,32.20
2018-09-06T04:09:22.617Z,32.60
2018-09-06T04:10:22.554Z,31.40
2018-09-06T04:11:22.495Z,32.10
2018-09-06T04:12:22.431Z,31.90
2018-09-06T04:13:22.371Z,32.20
2018-09-06T04:14:22.305Z,32.00
2018-09-06T04:15:22.246Z,32.60
2018-09-06T04:16:22.182Z,32.70
2018-09-06T04:17:22.123Z,33.80
2018-09-06T04:18:22.117Z,35.10
2018-09-06T04:19:22.000Z,36.30
2018-09-06T04:20:21.940Z,34.90
2018-09-06T04:21:21.883Z,35.10
2018-09-06T04:22:21.817Z,34.60
2018-09-06T04:23:21.754Z,33.60
2018-09-06T04:24:21.795Z,35.60
2018-09-06T04:25:21.630Z,36.10
2018-09-06T04:26:21.568Z,36.30
2018-09-06T04:27:21.511Z,34.60
2018-09-06T04:28:21.446Z,34.20
2018-09-06T04:29:21.387Z,35.20
2018-09-06T04:30:21.324Z,35.30
2018-09-06T04:31:21.267Z,34.60
2018-09-06T04:32:21.200Z,34.20
2018-09-06T04:33:21.152Z,34.00
2018-09-06T04:34:21.077Z,33.30
2018-09-06T04:35:21.038Z,32.90
2018-09-06T04:36:20.958Z,33.00
2018-09-06T04:37:20.896Z,32.60
2018-09-06T04:38:20.831Z,32.60
2018-09-06T04:39:20.769Z,31.90
2018-09-06T04:40:20.712Z,33.20
2018-09-06T04:41:20.649Z,33.80
2018-09-06T04:42:20.586Z,33.20
2018-09-06T04:43:20.524Z,33.60
2018-09-06T04:44:20.463Z,33.30
2018-09-06T04:45:20.407Z,33.80
2018-09-06T04:46:20.340Z,34.70
2018-09-06T04:47:20.280Z,33.00
2018-09-06T04:48:20.219Z,32.70
2018-09-06T04:49:20.156Z,32.50
2018-09-06T04:50:20.098Z,32.30
2018-09-06T04:51:20.034Z,32.60
2018-09-06T04:52:19.973Z,32.40
2018-09-06T04:53:19.910Z,31.70
2018-09-06T04:54:19.848Z,32.20
2018-09-06T04:55:19.825Z,33.70
2018-09-06T04:56:19.726Z,32.80
2018-09-06T04:57:19.665Z,33.10
2018-09-06T04:58:19.669Z,32.30
2018-09-06T04:59:19.540Z,32.80
2018-09-06T05:00:19.480Z,33.00
2018-09-06T05:01:19.420Z,32.70
2018-09-06T05:02:19.357Z,31.90
2018-09-06T05:03:19.296Z,32.70
2018-09-06T05:04:19.248Z,32.30
2018-09-06T05:05:19.172Z,32.00
2018-09-06T05:06:19.110Z,31.10
2018-09-06T05:07:19.051Z,31.00
2018-09-06T05:08:18.988Z,30.70
2018-09-06T05:09:18.926Z,29.70
2018-09-06T05:10:18.865Z,29.80
2018-09-06T05:11:18.804Z,30.40
2018-09-06T05:12:18.741Z,29.90
2018-09-06T05:13:18.680Z,29.60
2018-09-06T05:14:18.620Z,28.70
2018-09-06T05:15:18.556Z,29.50
2018-09-06T05:16:18.498Z,27.50
2018-09-06T05:17:18.435Z,26.90
2018-09-06T05:18:18.372Z,27.40
2018-09-06T05:19:18.311Z,27.10
2018-09-06T05:20:18.253Z,27.70
2018-09-06T05:21:18.188Z,27.90
2018-09-06T05:22:18.127Z,28.70
2018-09-06T05:23:18.066Z,26.80
2018-09-06T05:24:18.008Z,27.30
2018-09-06T05:25:17.944Z,27.20
2018-09-06T05:26:17.882Z,28.10
2018-09-06T05:27:17.821Z,27.10
2018-09-06T05:28:17.762Z,28.70
2018-09-06T05:29:17.699Z,28.00
2018-09-06T05:30:17.634Z,28.70
2018-09-06T05:31:17.576Z,30.00
2018-09-06T05:32:17.518Z,30.00
2018-09-06T05:33:17.471Z,31.10
2018-09-06T05:34:17.395Z,33.50
2018-09-06T05:35:17.368Z,33.70
2018-09-06T05:36:17.379Z,36.20
2018-09-06T05:37:17.208Z,37.50
2018-09-06T05:38:17.148Z,38.10
2018-09-06T05:39:17.086Z,40.40
2018-09-06T05:40:17.026Z,41.20
2018-09-06T05:41:16.965Z,41.00
2018-09-06T05:42:16.902Z,41.80
2018-09-06T05:43:16.843Z,43.00
2018-09-06T05:44:16.804Z,40.90
2018-09-06T05:45:16.722Z,41.90
2018-09-06T05:46:16.658Z,42.80
2018-09-06T05:47:16.604Z,42.10
2018-09-06T05:48:16.540Z,40.90
2018-09-06T05:49:16.478Z,41.70
2018-09-06T05:50:16.414Z,42.00
2018-09-06T05:51:16.353Z,41.90
2018-09-06T05:52:16.292Z,41.90
2018-09-06T05:53:16.304Z,42.80
2018-09-06T05:54:16.169Z,42.20
2018-09-06T05:55:16.109Z,42.40
2018-09-06T05:56:16.051Z,44.00
2018-09-06T05:57:15.988Z,45.50
2018-09-06T05:58:15.939Z,45.20
2018-09-06T05:59:15.863Z,41.90
2018-09-06T06:00:15.805Z,42.60
2018-09-06T06:01:15.748Z,41.50
2018-09-06T06:02:15.686Z,41.90
2018-09-06T06:03:15.650Z,42.40
2018-09-06T06:04:15.572Z,42.90
2018-09-06T06:05:15.564Z,42.50
2018-09-06T06:06:15.439Z,43.10
2018-09-06T06:07:15.377Z,41.70
2018-09-06T06:08:15.317Z,41.90
2018-09-06T06:09:15.279Z,42.60
2018-09-06T06:10:15.295Z,41.40
2018-09-06T06:11:15.263Z,42.70
2018-09-06T06:12:15.152Z,40.40
2018-09-06T06:13:15.014Z,40.90
2018-09-06T06:14:15.056Z,40.50
2018-09-06T06:15:14.906Z,41.00
2018-09-06T06:16:14.851Z,40.90
2018-09-06T06:17:14.770Z,38.30
2018-09-06T06:18:14.704Z,37.20
2018-09-06T06:19:14.646Z,35.80
2018-09-06T06:20:14.592Z,36.00
2018-09-06T06:21:14.525Z,36.70
2018-09-06T06:22:14.527Z,35.00
2018-09-06T06:23:14.403Z,34.70
2018-09-06T06:24:14.345Z,34.80
2018-09-06T06:25:14.282Z,35.10
2018-09-06T06:26:14.222Z,34.50
2018-09-06T06:27:14.162Z,34.60
2018-09-06T06:28:14.101Z,35.50
2018-09-06T06:29:14.041Z,34.80
2018-09-06T06:30:13.983Z,33.70
2018-09-06T06:31:13.923Z,33.30
2018-09-06T06:32:13.902Z,34.10
2018-09-06T06:33:13.797Z,33.50
2018-09-06T06:34:13.737Z,35.10
2018-09-06T06:35:13.676Z,35.20
2018-09-06T06:36:13.615Z,34.90
2018-09-06T06:37:13.557Z,33.60
2018-09-06T06:38:13.493Z,33.70
2018-09-06T06:39:13.445Z,34.10
2018-09-06T06:40:13.376Z,34.30
2018-09-06T06:41:13.313Z,34.80
2018-09-06T06:42:13.251Z,34.50
2018-09-06T06:43:13.220Z,34.60
2018-09-06T06:44:13.131Z,33.00
2018-09-06T06:45:13.069Z,33.40
2018-09-06T06:46:13.008Z,33.60
2018-09-06T06:47:12.949Z,33.90
2018-09-06T06:48:12.888Z,31.90
2018-09-06T06:49:12.830Z,32.80
2018-09-06T06:50:12.818Z,31.80
2018-09-06T06:51:12.707Z,33.40
2018-09-06T06:52:12.649Z,33.70
2018-09-06T06:53:12.596Z,33.50
2018-09-06T06:54:12.526Z,33.20
2018-09-06T06:55:12.467Z,32.60
2018-09-06T06:56:12.407Z,33.10
2018-09-06T06:57:12.349Z,33.40
2018-09-06T06:58:12.287Z,35.20
2018-09-06T06:59:12.223Z,33.50
2018-09-06T07:00:12.167Z,33.70
2018-09-06T07:01:12.107Z,34.00
2018-09-06T07:02:12.046Z,33.80
2018-09-06T07:03:11.989Z,33.00
2018-09-06T07:04:11.948Z,33.90
2018-09-06T07:05:11.867Z,34.40
2018-09-06T07:06:11.803Z,34.50
2018-09-06T07:07:11.786Z,35.00
2018-09-06T07:08:11.688Z,34.00
2018-09-06T07:09:11.631Z,33.70
2018-09-06T07:10:11.568Z,33.90
2018-09-06T07:11:11.509Z,33.30
2018-09-06T07:12:11.448Z,34.30
2018-09-06T07:13:11.392Z,33.60
2018-09-06T07:14:11.327Z,34.20
2018-09-06T07:15:11.267Z,34.20
2018-09-06T07:16:11.211Z,33.60
2018-09-06T07:17:11.149Z,33.20
2018-09-06T07:18:11.099Z,33.40
2018-09-06T07:19:11.030Z,34.70
2018-09-06T07:20:10.968Z,34.40
2018-09-06T07:21:10.910Z,33.30
2018-09-06T07:22:10.853Z,32.90
2018-09-06T07:23:10.794Z,32.60
2018-09-06T07:24:10.730Z,32.30
2018-09-06T07:25:10.670Z,33.20
2018-09-06T07:26:10.611Z,31.10
2018-09-06T07:27:10.551Z,32.40
2018-09-06T07:28:10.490Z,32.70
2018-09-06T07:29:10.432Z,32.40
2018-09-06T07:30:10.372Z,33.50
2018-09-06T07:31:10.310Z,32.50
2018-09-06T07:32:10.254Z,34.20
2018-09-06T07:33:10.195Z,32.70
2018-09-06T07:34:10.131Z,33.30
2018-09-06T07:35:10.093Z,32.50
2018-09-06T07:36:10.015Z,31.50
2018-09-06T07:37:09.958Z,32.50
2018-09-06T07:38:09.894Z,33.80
2018-09-06T07:39:09.836Z,31.80
2018-09-06T07:40:09.775Z,33.20
2018-09-06T07:41:09.729Z,32.50
2018-09-06T07:42:09.657Z,31.70
2018-09-06T07:43:09.597Z,31.70
2018-09-06T07:44:09.538Z,31.80
2018-09-06T07:45:09.478Z,33.20
2018-09-06T07:46:09.416Z,32.00
2018-09-06T07:47:09.360Z,32.70
2018-09-06T07:48:09.312Z,32.40
2018-09-06T07:49:09.241Z,33.30
2018-09-06T07:50:09.194Z,32.50
2018-09-06T07:51:09.122Z,32.20
2018-09-06T07:52:09.079Z,32.90
2018-09-06T07:53:09.001Z,31.80
2018-09-06T07:54:08.947Z,31.40
2018-09-06T07:55:08.885Z,32.50
2018-09-06T07:56:08.826Z,30.90
2018-09-06T07:57:08.770Z,31.40
2018-09-06T07:58:08.707Z,32.30
2018-09-06T07:59:08.647Z,31.60
2018-09-06T08:00:08.589Z,31.50
2018-09-06T08:01:08.535Z,33.40
2018-09-06T08:02:08.472Z,32.70
2018-09-06T08:03:08.413Z,33.30
2018-09-06T08:04:08.355Z,34.90
2018-09-06T08:05:08.296Z,33.10
2018-09-06T08:06:08.233Z,32.70
2018-09-06T08:07:08.176Z,33.60
2018-09-06T08:08:08.119Z,33.30
2018-09-06T08:09:08.058Z,33.30
2018-09-06T08:10:07.998Z,33.30
2018-09-06T08:11:07.939Z,33.50
2018-09-06T08:12:07.893Z,33.50
2018-09-06T08:13:07.822Z,33.80
2018-09-06T08:14:07.760Z,34.60
2018-09-06T08:15:07.707Z,34.00
2018-09-06T08:16:07.641Z,34.20
2018-09-06T08:17:07.586Z,32.80
2018-09-06T08:18:07.527Z,31.90
2018-09-06T08:19:07.469Z,32.10
2018-09-06T08:20:07.408Z,31.40
2018-09-06T08:21:07.354Z,32.20
2018-09-06T08:22:07.295Z,31.10
2018-09-06T08:23:07.234Z,31.70
2018-09-06T08:24:07.180Z,33.00
2018-09-06T08:25:07.116Z,31.80
2018-09-06T08:26:07.055Z,31.80
2018-09-06T08:27:06.998Z,32.30
2018-09-06T08:28:06.939Z,31.70
2018-09-06T08:29:06.881Z,32.10
2018-09-06T08:30:06.821Z,32.40
2018-09-06T08:31:06.820Z,31.80
2018-09-06T08:32:06.705Z,31.70
2018-09-06T08:33:06.646Z,32.70
2018-09-06T08:34:06.589Z,32.00
2018-09-06T08:35:06.528Z,31.10
2018-09-06T08:36:06.471Z,30.70
2018-09-06T08:37:06.411Z,31.90
2018-09-06T08:38:06.353Z,32.40
2018-09-06T08:39:06.293Z,31.90
2018-09-06T08:40:06.238Z,30.10
2018-09-06T08:41:06.199Z,30.30
2018-09-06T08:42:06.118Z,30.90
2018-09-06T08:43:06.058Z,30.60
2018-09-06T08:44:06.000Z,30.00
2018-09-06T08:45:05.943Z,30.00
2018-09-06T08:46:05.887Z,31.70
2018-09-06T08:47:05.847Z,32.10
2018-09-06T08:48:05.766Z,30.70
2018-09-06T08:49:05.723Z,30.80
2018-09-06T08:50:05.648Z,30.30
2018-09-06T08:51:05.595Z,30.70
2018-09-06T08:52:05.541Z,29.80
2018-09-06T08:53:05.474Z,28.90
2018-09-06T08:54:05.416Z,30.40
2018-09-06T08:55:05.356Z,28.40
2018-09-06T08:56:05.299Z,28.20
2018-09-06T08:57:05.240Z,29.80
2018-09-06T08:58:05.183Z,29.00
2018-09-06T08:59:05.124Z,27.00
2018-09-06T09:00:05.772Z,27.20
2018-09-06T09:01:05.008Z,26.60
2018-09-06T09:02:04.983Z,27.70
2018-09-06T09:03:04.899Z,28.50
2018-09-06T09:04:04.831Z,27.90
2018-09-06T09:05:04.774Z,26.80
2018-09-06T09:06:04.853Z,27.00
2018-09-06T09:07:04.658Z,26.10
2018-09-06T09:08:04.600Z,25.80
2018-09-06T09:09:04.541Z,25.80
2018-09-06T09:10:04.483Z,26.10
2018-09-06T09:11:04.424Z,27.40
2018-09-06T09:12:04.370Z,25.40
2018-09-06T09:13:04.367Z,25.10
2018-09-06T09:14:04.258Z,26.30
2018-09-06T09:15:04.191Z,26.10
2018-09-06T09:16:04.160Z,25.60
2018-09-06T09:17:04.079Z,25.40
2018-09-06T09:18:04.017Z,24.40
2018-09-06T09:19:03.959Z,24.60
2018-09-06T09:20:03.900Z,24.60
2018-09-06T09:21:03.874Z,23.70
2018-09-06T09:22:03.809Z,24.40
2018-09-06T09:23:03.729Z,24.90
2018-09-06T09:24:03.675Z,24.70
2018-09-06T09:25:03.620Z,24.20
2018-09-06T09:26:03.550Z,25.60
2018-09-06T09:27:03.495Z,26.00
2018-09-06T09:28:03.435Z,26.10
2018-09-06T09:29:03.379Z,24.40
2018-09-06T09:30:03.319Z,24.20
2018-09-06T09:31:03.267Z,24.00
2018-09-06T09:32:03.204Z,24.00
2018-09-06T09:33:03.148Z,23.80
2018-09-06T09:34:03.087Z,24.50
2018-09-06T09:35:03.028Z,24.30
2018-09-06T09:36:03.047Z,24.70
2018-09-06T09:37:02.914Z,24.50
2018-09-06T09:38:02.859Z,24.70
2018-09-06T09:39:02.799Z,23.00
2018-09-06T09:40:02.784Z,21.70
2018-09-06T09:41:02.681Z,21.50
2018-09-06T09:42:02.638Z,21.10
2018-09-06T09:43:02.564Z,22.10
2018-09-06T09:44:02.510Z,22.50
2018-09-06T09:45:02.457Z,20.80
2018-09-06T09:47:55.421Z,22.70
2018-09-06T09:48:34.348Z,22.50
2018-09-06T09:49:34.296Z,22.80
2018-09-06T09:50:55.223Z,24.50
2018-09-06T09:51:34.175Z,23.10
2018-09-06T09:52:34.120Z,23.90
2018-09-06T09:53:34.062Z,24.00
2018-09-06T09:54:34.006Z,24.10
2018-09-06T09:55:33.946Z,23.20
2018-09-06T09:56:33.889Z,23.10
2018-09-06T09:57:33.832Z,22.60
2018-09-06T09:58:33.778Z,21.50
2018-09-06T09:59:33.721Z,22.10
2018-09-06T10:00:33.677Z,21.90
2018-09-06T10:01:33.603Z,20.60
2018-09-06T10:02:33.549Z,19.80
2018-09-06T10:03:33.488Z,19.90
2018-09-06T10:04:33.432Z,19.80
2018-09-06T10:05:33.374Z,18.60
2018-09-06T10:06:33.379Z,20.60
2018-09-06T10:07:33.260Z,20.10
2018-09-06T10:08:33.221Z,21.00
2018-09-06T10:09:33.146Z,19.20
2018-09-06T10:10:33.138Z,18.20
2018-09-06T10:11:33.030Z,17.50
2018-09-06T10:12:32.970Z,16.70
2018-09-06T10:13:32.919Z,16.30
2018-09-06T10:14:32.866Z,16.90
2018-09-06T10:15:32.801Z,17.20
2018-09-06T10:16:32.746Z,16.90
2018-09-06T10:17:32.689Z,15.80
2018-09-06T10:18:32.632Z,17.20
2018-09-06T10:19:32.573Z,16.20
2018-09-06T10:20:32.519Z,14.80
2018-09-06T10:21:32.457Z,16.20
2018-09-06T10:22:32.408Z,15.70
2018-09-06T10:23:32.346Z,15.70
2018-09-06T10:24:32.293Z,15.10
2018-09-06T10:25:32.235Z,16.60
2018-09-06T10:26:32.281Z,17.20
2018-09-06T10:27:32.123Z,15.80
2018-09-06T10:28:32.170Z,16.40
2018-09-06T10:29:32.044Z,16.30
2018-09-06T10:30:31.954Z,16.10
2018-09-06T10:31:31.897Z,15.80
2018-09-06T10:32:31.839Z,16.30
2018-09-06T10:33:31.785Z,17.00
2018-09-06T10:34:31.725Z,16.10
2018-09-06T10:35:31.721Z,15.70
2018-09-06T10:36:31.615Z,15.60
2018-09-06T10:37:31.560Z,14.50
2018-09-06T10:38:31.501Z,13.70
2018-09-06T10:39:31.453Z,15.50
2018-09-06T10:40:31.404Z,15.30
2018-09-06T10:41:31.335Z,14.90
2018-09-06T10:42:31.277Z,14.40
2018-09-06T10:43:31.221Z,15.60
2018-09-06T10:44:31.164Z,14.50
2018-09-06T10:45:31.130Z,13.10
2018-09-06T10:46:31.094Z,13.70
2018-09-06T10:47:30.995Z,12.60
2018-09-06T10:48:30.950Z,12.40
2018-09-06T10:49:30.884Z,11.90
2018-09-06T10:50:30.831Z,12.50
2018-09-06T10:51:30.773Z,11.90
2018-09-06T10:52:30.716Z,13.10
2018-09-06T10:53:30.665Z,12.70
2018-09-06T10:54:30.606Z,13.60
2018-09-06T10:55:30.549Z,12.80
2018-09-06T10:56:30.494Z,12.50
2018-09-06T10:57:30.437Z,13.40
2018-09-06T10:58:30.382Z,12.00
2018-09-06T10:59:30.326Z,11.50
2018-09-06T11:00:30.321Z,12.30
2018-09-06T11:01:30.215Z,11.80
2018-09-06T11:02:30.160Z,12.40
2018-09-06T11:03:30.102Z,11.80
2018-09-06T11:04:30.047Z,12.00
2018-09-06T11:05:29.989Z,11.40
2018-09-06T11:06:29.935Z,10.90
2018-09-06T11:07:29.877Z,11.30
2018-09-06T11:08:29.822Z,10.50
2018-09-06T11:09:29.768Z,10.90
2018-09-06T11:10:29.713Z,12.00
2018-09-06T11:11:29.653Z,11.70
2018-09-06T11:12:29.605Z,12.00
2018-09-06T11:13:29.544Z,12.00
2018-09-06T11:14:29.488Z,11.80
2018-09-06T11:15:29.429Z,12.90
2018-09-06T11:16:29.377Z,11.40
2018-09-06T11:17:29.321Z,12.30
2018-09-06T11:18:29.263Z,11.40
2018-09-06T11:19:29.213Z,11.30
2018-09-06T11:20:29.151Z,11.20
2018-09-06T11:21:29.112Z,9.80
2018-09-06T11:22:29.367Z,10.90
2018-09-06T11:23:28.989Z,11.70
2018-09-06T11:24:28.927Z,11.30
2018-09-06T11:25:28.871Z,11.60
2018-09-06T11:26:28.816Z,10.90
2018-09-06T11:27:28.814Z,10.70
2018-09-06T11:28:28.956Z,10.80
2018-09-06T11:29:28.650Z,10.90
2018-09-06T11:30:28.593Z,11.20
2018-09-06T11:31:28.544Z,11.20
2018-09-06T11:32:28.489Z,10.50
2018-09-06T11:33:28.427Z,10.30
2018-09-06T11:34:28.369Z,10.40
2018-09-06T11:35:28.336Z,10.50
2018-09-06T11:36:28.259Z,10.40
2018-09-06T11:37:28.200Z,10.50
2018-09-06T11:38:28.146Z,9.70
2018-09-06T11:39:28.088Z,9.80
2018-09-06T11:40:28.055Z,10.10
2018-09-06T11:41:27.977Z,10.00
2018-09-06T11:42:27.921Z,10.10
2018-09-06T11:43:27.863Z,10.60
2018-09-06T11:44:27.811Z,10.20
2018-09-06T11:45:27.755Z,10.30
2018-09-06T11:46:27.698Z,10.70
2018-09-06T11:47:27.686Z,10.00
2018-09-06T11:48:27.587Z,9.80
2018-09-06T11:49:27.529Z,11.20
2018-09-06T11:50:27.476Z,10.20
2018-09-06T11:51:27.417Z,10.10
2018-09-06T11:52:27.362Z,9.80
2018-09-06T11:53:27.303Z,9.80
2018-09-06T11:54:27.257Z,10.00
2018-09-06T11:55:27.192Z,10.20
2018-09-06T11:56:27.137Z,10.80
2018-09-06T11:57:27.081Z,10.80
2018-09-06T11:58:27.025Z,10.50
2018-09-06T11:59:26.965Z,10.30
2018-09-06T12:00:26.913Z,10.20
2018-09-06T12:01:26.855Z,9.80
2018-09-06T12:02:26.799Z,10.10
2018-09-06T12:03:26.747Z,10.20
2018-09-06T12:04:26.686Z,10.60
2018-09-06T12:05:26.632Z,9.80
2018-09-06T12:06:26.573Z,11.30
2018-09-06T12:07:26.519Z,10.10
2018-09-06T12:08:26.461Z,11.00
2018-09-06T12:09:26.407Z,10.90
2018-09-06T12:10:26.350Z,10.30
2018-09-06T12:11:26.292Z,10.00
2018-09-06T12:12:26.236Z,10.20
2018-09-06T12:13:26.188Z,9.70
2018-09-06T12:14:26.127Z,9.20
2018-09-06T12:15:26.067Z,9.80
2018-09-06T12:16:26.013Z,10.00
2018-09-06T12:17:25.955Z,9.60
2018-09-06T12:18:25.899Z,10.20
2018-09-06T12:19:25.930Z,10.10
2018-09-06T12:20:25.788Z,10.30
2018-09-06T12:21:25.732Z,8.90
2018-09-06T12:22:25.676Z,9.30
2018-09-06T12:23:25.619Z,8.70
2018-09-06T12:24:25.559Z,9.20
2018-09-06T12:25:25.595Z,9.20
2018-09-06T12:26:25.449Z,9.40
2018-09-06T12:27:25.394Z,9.10
2018-09-06T12:28:25.336Z,8.80
2018-09-06T12:29:25.283Z,9.40
2018-09-06T12:30:25.228Z,9.20
2018-09-06T12:31:25.166Z,9.40
2018-09-06T12:32:25.117Z,8.80
2018-09-06T12:33:25.113Z,9.20
2018-09-06T12:34:25.001Z,9.30
2018-09-06T12:35:24.943Z,9.30
2018-09-06T12:36:24.903Z,9.20
2018-09-06T12:37:24.833Z,9.20
2018-09-06T12:38:24.784Z,9.10
2018-09-06T12:39:24.717Z,9.30
2018-09-06T12:40:24.661Z,9.30
2018-09-06T12:41:24.607Z,8.60
2018-09-06T12:42:24.553Z,9.00
2018-09-06T12:43:24.492Z,9.00
2018-09-06T12:44:24.446Z,8.90
2018-09-06T12:45:24.381Z,9.50
2018-09-06T12:46:24.328Z,9.90
2018-09-06T12:47:24.269Z,8.70
2018-09-06T12:48:24.217Z,9.30
2018-09-06T12:49:24.161Z,10.00
2018-09-06T12:50:24.099Z,9.50
2018-09-06T12:51:24.049Z,9.50
2018-09-06T12:52:23.989Z,9.10
2018-09-06T12:53:23.933Z,9.50
2018-09-06T12:54:23.879Z,8.70
2018-09-06T12:55:23.819Z,9.10